Corcovado, Argentina
Current Conditions -  °F | °C
As of 7:00 AM on Monday 20 Oct 2014 (Local Time) from SAVE Reporting Station
Few Clouds Few Clouds  
Wind Chill: 57°   Ceiling: Unl
Heat Index: 57°   Visibility: 6mi
Dew Point: 37°   Wind: 24mph
Humidity: 48%   Direction: 290°WNW
Pressure: 29.74"   Gusts: 43mph
Location:  43.46°S, 71.09°W
Report Text: SAVE 201000Z 29021G37KT 9999 FEW030 14/03 Q1007
Loading
Personal Weather Stations






























Interactive Weather Map New forecast layout! Learn more

10-Day Weather Forecast

Advertisements
Track Severe Weather on mobile